createdAt,value
2023-02-21T00:01:21.916Z,11.10
2023-02-21T00:03:53.364Z,10.20
2023-02-21T00:06:27.271Z,11.20
2023-02-21T00:08:58.005Z,9.70
2023-02-21T00:11:28.948Z,11.90
2023-02-21T00:13:59.678Z,9.20
2023-02-21T00:16:34.844Z,10.30
2023-02-21T00:19:05.756Z,9.90
2023-02-21T00:21:36.234Z,11.60
2023-02-21T00:24:06.921Z,10.70
2023-02-21T00:26:38.469Z,10.20
2023-02-21T00:29:09.100Z,10.60
2023-02-21T00:31:40.037Z,9.60
2023-02-21T00:34:11.302Z,10.40
2023-02-21T00:36:42.123Z,9.10
2023-02-21T00:39:12.865Z,8.00
2023-02-21T00:41:43.997Z,11.00
2023-02-21T00:44:14.834Z,9.90
2023-02-21T00:46:45.809Z,9.10
2023-02-21T00:49:16.815Z,9.00
2023-02-21T00:51:48.063Z,9.00
2023-02-21T00:54:18.795Z,10.40
2023-02-21T00:56:50.037Z,12.10
2023-02-21T00:59:20.874Z,11.70
2023-02-21T01:01:51.916Z,10.00
2023-02-21T01:04:22.826Z,9.30
2023-02-21T01:06:54.104Z,11.00
2023-02-21T01:09:24.746Z,9.50
2023-02-21T01:11:56.738Z,11.00
2023-02-21T01:14:28.520Z,10.50
2023-02-21T01:17:07.851Z,8.50
2023-02-21T01:19:45.263Z,7.20
2023-02-21T01:22:16.233Z,7.00
2023-02-21T01:24:47.165Z,7.00
2023-02-21T01:27:18.620Z,6.00
2023-02-21T01:29:49.557Z,7.30
2023-02-21T01:32:20.312Z,7.00
2023-02-21T01:34:51.332Z,7.00
2023-02-21T01:37:22.081Z,7.70
2023-02-21T01:39:53.311Z,6.60
2023-02-21T01:42:24.557Z,6.50
2023-02-21T01:45:04.004Z,5.90
2023-02-21T01:47:37.800Z,6.70
2023-02-21T01:50:08.635Z,5.80
2023-02-21T01:52:40.087Z,5.70
2023-02-21T01:55:13.283Z,5.60
2023-02-21T01:57:44.529Z,5.60
2023-02-21T02:00:17.717Z,7.10
2023-02-21T02:03:26.161Z,5.50
2023-02-21T02:05:58.284Z,4.60
2023-02-21T02:08:30.162Z,5.70
2023-02-21T02:11:02.740Z,4.90
2023-02-21T02:13:27.028Z,3.80
2023-02-21T02:15:49.076Z,6.70
2023-02-21T02:18:16.126Z,6.40
2023-02-21T02:20:52.475Z,5.20
2023-02-21T02:23:43.581Z,5.40
2023-02-21T02:26:20.253Z,6.30
2023-02-21T02:28:43.720Z,5.30
2023-02-21T02:31:25.406Z,5.90
2023-02-21T02:34:15.807Z,6.40
2023-02-21T02:36:34.364Z,5.20
2023-02-21T02:39:05.492Z,6.00
2023-02-21T02:41:50.257Z,5.20
2023-02-21T02:44:10.345Z,5.40
2023-02-21T02:46:32.162Z,6.30
2023-02-21T02:48:54.319Z,5.10
2023-02-21T02:51:13.063Z,5.70
2023-02-21T02:53:30.060Z,5.40
2023-02-21T02:55:55.370Z,6.70
2023-02-21T02:58:11.866Z,5.10
2023-02-21T03:00:24.168Z,6.10
2023-02-21T03:03:07.087Z,5.30
2023-02-21T03:05:44.075Z,6.00
2023-02-21T03:08:28.016Z,3.90
2023-02-21T03:10:48.137Z,5.10
2023-02-21T03:13:12.389Z,6.20
2023-02-21T03:15:30.311Z,4.20
2023-02-21T03:17:51.931Z,5.30
2023-02-21T03:20:05.058Z,4.50
2023-02-21T03:22:22.271Z,4.10
2023-02-21T03:24:37.167Z,3.10
2023-02-21T03:26:54.350Z,4.50
2023-02-21T03:29:30.211Z,6.10
2023-02-21T03:31:51.868Z,6.50
2023-02-21T03:34:04.228Z,2.60
2023-02-21T03:36:16.339Z,5.30
2023-02-21T03:38:29.770Z,2.80
2023-02-21T03:40:42.467Z,5.30
2023-02-21T03:42:56.838Z,3.70
2023-02-21T03:45:10.284Z,3.90
2023-02-21T03:47:22.755Z,2.50
2023-02-21T03:49:34.848Z,3.20
2023-02-21T03:51:47.151Z,3.20
2023-02-21T03:53:58.945Z,5.00
2023-02-21T03:56:17.079Z,4.60
2023-02-21T03:58:45.152Z,2.90
2023-02-21T04:00:58.009Z,3.50
2023-02-21T04:03:09.968Z,4.70
2023-02-21T04:05:29.845Z,3.80
2023-02-21T04:07:42.256Z,4.10
2023-02-21T04:09:54.249Z,4.90
2023-02-21T04:12:15.574Z,5.10
2023-02-21T04:14:27.958Z,2.90
2023-02-21T04:16:40.262Z,3.00
2023-02-21T04:18:53.378Z,4.00
2023-02-21T04:21:05.684Z,2.80
2023-02-21T04:23:22.410Z,4.30
2023-02-21T04:25:35.108Z,5.10
2023-02-21T04:27:51.397Z,4.30
2023-02-21T04:30:04.149Z,6.40
2023-02-21T04:32:16.367Z,7.60
2023-02-21T04:34:28.932Z,11.50
2023-02-21T04:36:41.115Z,14.90
2023-02-21T04:38:53.418Z,12.30
2023-02-21T04:41:05.822Z,14.60
2023-02-21T04:43:17.921Z,11.70
2023-02-21T04:45:30.354Z,7.00
2023-02-21T04:47:42.421Z,6.30
2023-02-21T04:49:54.416Z,8.20
2023-02-21T04:52:06.616Z,7.90
2023-02-21T04:54:18.612Z,11.50
2023-02-21T04:56:30.428Z,8.80
2023-02-21T04:58:45.521Z,9.90
2023-02-21T05:00:58.329Z,11.80
2023-02-21T05:03:10.583Z,8.60
2023-02-21T05:05:22.338Z,9.30
2023-02-21T05:07:34.571Z,5.30
2023-02-21T05:09:46.263Z,8.90
2023-02-21T05:11:58.152Z,9.90
2023-02-21T05:14:09.941Z,9.00
2023-02-21T05:16:22.133Z,7.80
2023-02-21T05:18:34.952Z,5.90
2023-02-21T05:20:46.642Z,9.10
2023-02-21T05:23:04.793Z,11.60
2023-02-21T05:25:24.455Z,5.30
2023-02-21T05:27:36.449Z,5.70
2023-02-21T05:29:50.387Z,7.60
2023-02-21T05:32:02.426Z,8.00
2023-02-21T05:34:15.814Z,9.30
2023-02-21T05:36:28.020Z,6.40
2023-02-21T05:38:51.473Z,8.00
2023-02-21T05:41:03.369Z,6.80
2023-02-21T05:43:15.776Z,6.60
2023-02-21T05:45:27.462Z,21.60
2023-02-21T05:47:39.455Z,11.50
2023-02-21T05:49:51.202Z,12.00
2023-02-21T05:52:05.492Z,14.30
2023-02-21T05:54:20.076Z,10.70
2023-02-21T05:56:38.389Z,11.80
2023-02-21T05:58:50.488Z,10.60
2023-02-21T06:01:03.607Z,8.50
2023-02-21T06:03:15.318Z,11.30
2023-02-21T06:05:27.192Z,10.40
2023-02-21T06:07:39.293Z,11.30
2023-02-21T06:09:51.792Z,12.10
2023-02-21T06:12:03.995Z,12.10
2023-02-21T06:14:19.292Z,11.30
2023-02-21T06:16:36.565Z,16.60
2023-02-21T06:18:53.392Z,16.00
2023-02-21T06:21:05.693Z,13.80
2023-02-21T06:23:17.276Z,21.50
2023-02-21T06:25:29.265Z,13.20
2023-02-21T06:27:41.268Z,9.90
2023-02-21T06:29:53.465Z,12.90
2023-02-21T06:32:05.608Z,14.40
2023-02-21T06:34:17.560Z,11.90
2023-02-21T06:36:30.184Z,15.20
2023-02-21T06:38:46.464Z,10.40
2023-02-21T06:40:58.505Z,11.50
2023-02-21T06:43:10.144Z,11.10
2023-02-21T06:45:22.047Z,11.80
2023-02-21T06:47:33.729Z,11.40
2023-02-21T06:49:45.929Z,11.40
2023-02-21T06:51:57.716Z,11.40
2023-02-21T06:54:09.818Z,15.10
2023-02-21T06:56:22.926Z,15.20
2023-02-21T06:58:36.056Z,13.80
2023-02-21T07:00:48.050Z,16.70
2023-02-21T07:03:00.149Z,17.50
2023-02-21T07:05:12.345Z,15.10
2023-02-21T07:07:24.146Z,13.70
2023-02-21T07:09:35.936Z,17.60
2023-02-21T07:11:47.749Z,14.10
2023-02-21T07:13:59.709Z,13.60
2023-02-21T07:16:11.811Z,15.10
2023-02-21T07:18:23.601Z,16.70
2023-02-21T07:20:35.692Z,18.60
2023-02-21T07:22:48.100Z,15.00
2023-02-21T07:24:59.957Z,17.50
2023-02-21T07:27:12.391Z,17.90
2023-02-21T07:29:25.261Z,16.30
2023-02-21T07:31:37.283Z,13.50
2023-02-21T07:33:49.712Z,15.60
2023-02-21T07:36:01.506Z,14.00
2023-02-21T07:38:25.062Z,13.70
2023-02-21T07:40:37.063Z,13.30
2023-02-21T07:42:49.258Z,15.90
2023-02-21T07:45:01.881Z,17.20
2023-02-21T07:47:14.068Z,19.00
2023-02-21T07:49:25.966Z,15.10
2023-02-21T07:51:37.851Z,16.10
2023-02-21T07:53:49.542Z,13.80
2023-02-21T07:56:01.431Z,11.80
2023-02-21T07:58:13.940Z,13.10
2023-02-21T08:00:26.414Z,16.40
2023-02-21T08:02:38.439Z,14.30
2023-02-21T08:04:52.056Z,17.30
2023-02-21T08:07:05.108Z,24.10
2023-02-21T08:09:17.701Z,20.20
2023-02-21T08:11:30.205Z,25.20
2023-02-21T08:13:41.916Z,16.90
2023-02-21T08:15:54.215Z,16.50
2023-02-21T08:18:06.843Z,11.50
2023-02-21T08:20:20.127Z,15.90
2023-02-21T08:22:32.429Z,13.60
2023-02-21T08:24:44.741Z,14.00
2023-02-21T08:26:56.672Z,22.60
2023-02-21T08:29:13.024Z,15.50
2023-02-21T08:31:27.036Z,18.30
2023-02-21T08:33:39.363Z,13.80
2023-02-21T08:35:51.254Z,14.80
2023-02-21T08:38:04.711Z,17.80
2023-02-21T08:40:19.965Z,18.30
2023-02-21T08:42:31.950Z,17.20
2023-02-21T08:44:45.389Z,18.40
2023-02-21T08:46:57.082Z,12.80
2023-02-21T08:49:09.991Z,21.50
2023-02-21T08:51:30.117Z,21.20
2023-02-21T08:53:42.064Z,16.30
2023-02-21T08:55:54.268Z,21.90
2023-02-21T08:58:06.668Z,21.20
2023-02-21T09:00:23.397Z,12.90
2023-02-21T09:02:35.367Z,14.80
2023-02-21T09:04:47.777Z,26.80
2023-02-21T09:07:00.342Z,29.00
2023-02-21T09:09:12.497Z,19.80
2023-02-21T09:11:24.575Z,23.30
2023-02-21T09:13:36.573Z,18.50
2023-02-21T09:15:48.677Z,19.10
2023-02-21T09:18:01.181Z,20.90
2023-02-21T09:20:18.699Z,17.00
2023-02-21T09:22:34.741Z,17.20
2023-02-21T09:24:50.574Z,17.20
2023-02-21T09:27:05.643Z,17.80
2023-02-21T09:29:19.581Z,18.30
2023-02-21T09:31:31.444Z,20.10
2023-02-21T09:33:44.600Z,25.80
2023-02-21T09:35:56.820Z,16.90
2023-02-21T09:38:09.710Z,22.70
2023-02-21T09:40:32.971Z,21.10
2023-02-21T09:42:45.068Z,20.80
2023-02-21T09:44:58.003Z,21.00
2023-02-21T09:47:19.908Z,20.00
2023-02-21T09:49:37.449Z,18.40
2023-02-21T09:51:50.875Z,18.30
2023-02-21T09:54:04.191Z,16.20
2023-02-21T09:56:34.307Z,21.90
2023-02-21T09:58:47.224Z,20.70
2023-02-21T10:01:07.137Z,28.70
2023-02-21T10:03:45.883Z,29.10
2023-02-21T10:06:09.389Z,16.50
2023-02-21T10:09:01.024Z,17.40
2023-02-21T10:11:28.778Z,24.90
2023-02-21T10:13:53.001Z,22.30
2023-02-21T10:16:24.371Z,23.70
2023-02-21T10:19:07.531Z,25.50
2023-02-21T10:21:29.089Z,16.60
2023-02-21T10:23:47.336Z,18.30
2023-02-21T10:26:18.843Z,21.60
2023-02-21T10:28:30.642Z,23.80
2023-02-21T10:30:43.453Z,25.70
2023-02-21T10:32:56.682Z,22.70
2023-02-21T10:35:08.564Z,21.60
2023-02-21T10:37:48.924Z,23.70
2023-02-21T10:40:08.213Z,18.20
2023-02-21T10:42:31.920Z,20.50
2023-02-21T10:44:44.447Z,28.90
2023-02-21T10:47:14.057Z,21.30
2023-02-21T10:49:31.391Z,23.90
2023-02-21T10:51:43.391Z,19.60
2023-02-21T10:54:20.500Z,20.50
2023-02-21T10:56:32.369Z,19.40
2023-02-21T10:59:06.382Z,22.90
2023-02-21T11:01:44.326Z,19.90
2023-02-21T11:04:07.153Z,21.30
2023-02-21T11:06:46.766Z,18.00
2023-02-21T11:08:59.582Z,23.30
2023-02-21T11:11:11.531Z,21.10
2023-02-21T11:13:23.794Z,18.60
2023-02-21T11:15:36.693Z,18.40
2023-02-21T11:18:04.051Z,16.30
2023-02-21T11:20:24.547Z,18.40
2023-02-21T11:22:43.947Z,23.20
2023-02-21T11:25:06.417Z,24.70
2023-02-21T11:27:18.865Z,20.70
2023-02-21T11:29:30.645Z,19.80
2023-02-21T11:31:43.731Z,20.40
2023-02-21T11:33:59.825Z,21.10
2023-02-21T11:36:15.088Z,19.50
2023-02-21T11:38:41.671Z,18.10
2023-02-21T11:40:53.765Z,18.70
2023-02-21T11:43:26.806Z,21.70
2023-02-21T11:45:59.788Z,19.40
2023-02-21T11:48:16.689Z,15.60
2023-02-21T11:50:35.565Z,21.20
2023-02-21T11:53:12.792Z,24.20
2023-02-21T11:55:26.639Z,20.60
2023-02-21T11:57:58.598Z,22.50
2023-02-21T12:00:28.609Z,17.90
2023-02-21T12:02:52.637Z,22.90
2023-02-21T12:05:33.176Z,34.60
2023-02-21T12:07:56.406Z,51.90
2023-02-21T12:11:05.137Z,41.90
2023-02-21T12:13:16.729Z,25.40
2023-02-21T12:15:47.550Z,20.60
2023-02-21T12:18:22.795Z,23.40
2023-02-21T12:20:55.470Z,19.50
2023-02-21T12:23:15.096Z,15.80
2023-02-21T12:25:44.549Z,27.30
2023-02-21T12:28:17.447Z,23.10
2023-02-21T12:30:50.046Z,19.30
2023-02-21T12:33:26.894Z,25.90
2023-02-21T12:35:49.299Z,17.30
2023-02-21T12:38:12.387Z,20.00
2023-02-21T12:40:56.945Z,21.80
2023-02-21T12:43:36.897Z,16.50
2023-02-21T12:46:10.022Z,24.20
2023-02-21T12:48:46.810Z,23.50
2023-02-21T12:51:04.877Z,20.30
2023-02-21T12:53:29.083Z,26.90
2023-02-21T12:55:47.485Z,22.90
2023-02-21T12:58:19.091Z,21.30
2023-02-21T13:00:41.624Z,21.50
2023-02-21T13:03:17.592Z,17.70
2023-02-21T13:05:43.190Z,21.70
2023-02-21T13:08:10.210Z,21.90
2023-02-21T13:10:31.982Z,12.80
2023-02-21T13:12:45.904Z,17.10
2023-02-21T13:15:04.255Z,22.80
2023-02-21T13:19:42.778Z,23.40
2023-02-21T13:21:54.665Z,26.40
2023-02-21T13:24:14.961Z,14.90
2023-02-21T13:27:01.358Z,17.20
2023-02-21T13:29:20.322Z,23.80
2023-02-21T13:31:39.546Z,17.60
2023-02-21T13:33:55.800Z,21.20
2023-02-21T13:36:28.474Z,20.00
2023-02-21T13:38:40.340Z,20.80
2023-02-21T13:41:10.266Z,28.50
2023-02-21T13:43:29.640Z,16.60
2023-02-21T13:45:41.744Z,24.20
2023-02-21T13:47:53.823Z,34.20
2023-02-21T13:50:36.305Z,26.90
2023-02-21T13:53:20.382Z,20.50
2023-02-21T13:55:33.000Z,20.50
2023-02-21T13:57:57.680Z,22.20
2023-02-21T14:00:21.762Z,26.80
2023-02-21T14:02:34.880Z,21.50
2023-02-21T14:04:52.813Z,23.80
2023-02-21T14:07:04.908Z,15.50
2023-02-21T14:09:18.849Z,21.10
2023-02-21T14:11:37.817Z,18.40
2023-02-21T14:13:54.698Z,27.30
2023-02-21T14:16:16.496Z,21.30
2023-02-21T14:18:50.757Z,23.50
2023-02-21T14:21:10.058Z,23.00
2023-02-21T14:23:55.909Z,22.20
2023-02-21T14:26:38.735Z,25.30
2023-02-21T14:29:20.019Z,29.40
2023-02-21T14:32:02.576Z,26.90
2023-02-21T14:34:21.031Z,20.10
2023-02-21T14:36:33.888Z,23.20
2023-02-21T14:38:46.092Z,25.30
2023-02-21T14:41:31.258Z,29.00
2023-02-21T14:44:18.128Z,26.80
2023-02-21T14:47:02.237Z,22.90
2023-02-21T14:49:18.348Z,26.90
2023-02-21T14:51:49.245Z,22.60
2023-02-21T14:54:11.696Z,25.60
2023-02-21T14:56:59.731Z,19.40
2023-02-21T14:59:51.454Z,20.20
2023-02-21T15:02:29.761Z,26.50
2023-02-21T15:04:55.027Z,21.80
2023-02-21T15:07:22.349Z,22.60
2023-02-21T15:09:37.595Z,28.80
2023-02-21T15:11:49.486Z,33.80
2023-02-21T15:14:24.969Z,27.60
2023-02-21T15:16:39.953Z,35.20
2023-02-21T15:19:02.006Z,36.90
2023-02-21T15:21:15.605Z,25.60
2023-02-21T15:23:32.116Z,27.60
2023-02-21T15:25:53.498Z,27.30
2023-02-21T15:28:19.295Z,24.00
2023-02-21T15:30:34.333Z,32.60
2023-02-21T15:32:54.480Z,41.00
2023-02-21T15:35:20.842Z,47.90
2023-02-21T15:37:38.094Z,52.90
2023-02-21T15:40:12.300Z,38.60
2023-02-21T15:42:27.574Z,33.40
2023-02-21T15:44:51.631Z,68.40
2023-02-21T15:47:20.276Z,66.70
2023-02-21T15:49:41.055Z,70.80
2023-02-21T15:51:54.489Z,56.60
2023-02-21T15:54:17.079Z,61.90
2023-02-21T15:56:31.581Z,47.40
2023-02-21T15:59:24.815Z,50.10
2023-02-21T16:01:37.284Z,57.70
2023-02-21T16:03:50.220Z,41.50
2023-02-21T16:06:17.636Z,39.30
2023-02-21T16:08:31.038Z,37.20
2023-02-21T16:10:46.247Z,36.40
2023-02-21T16:13:02.763Z,32.80
2023-02-21T16:15:18.795Z,57.40
2023-02-21T16:17:40.227Z,151.00
2023-02-21T16:19:56.302Z,73.80
2023-02-21T16:22:13.145Z,46.80
2023-02-21T16:24:32.907Z,43.80
2023-02-21T16:27:05.298Z,37.10
2023-02-21T16:29:18.236Z,37.00
2023-02-21T16:31:34.864Z,62.30
2023-02-21T16:33:53.382Z,49.60
2023-02-21T16:36:22.972Z,37.50
2023-02-21T16:38:36.051Z,74.50
2023-02-21T16:40:49.825Z,66.60
2023-02-21T16:43:04.986Z,59.70
2023-02-21T16:45:19.356Z,64.60
2023-02-21T16:47:32.364Z,58.40
2023-02-21T16:49:45.361Z,39.50
2023-02-21T16:51:57.748Z,36.20
2023-02-21T16:54:11.950Z,35.70
2023-02-21T16:56:24.798Z,30.80
2023-02-21T16:58:47.557Z,28.20
2023-02-21T17:01:07.971Z,37.30
2023-02-21T17:03:20.486Z,43.00
2023-02-21T17:05:36.160Z,47.50
2023-02-21T17:07:50.322Z,31.30
2023-02-21T17:10:02.584Z,41.50
2023-02-21T17:12:15.132Z,32.60
2023-02-21T17:14:28.217Z,33.50
2023-02-21T17:16:40.822Z,32.50
2023-02-21T17:18:52.817Z,38.00
2023-02-21T17:21:05.633Z,30.60
2023-02-21T17:23:19.099Z,28.30
2023-02-21T17:25:34.453Z,30.80
2023-02-21T17:27:46.946Z,28.50
2023-02-21T17:29:59.463Z,25.40
2023-02-21T17:32:15.265Z,33.10
2023-02-21T17:34:29.436Z,28.20
2023-02-21T17:36:41.914Z,34.30
2023-02-21T17:38:56.660Z,32.70
2023-02-21T17:41:10.991Z,48.70
2023-02-21T17:43:23.765Z,42.20
2023-02-21T17:45:39.179Z,54.70
2023-02-21T17:47:52.633Z,62.40
2023-02-21T17:50:06.059Z,42.20
2023-02-21T17:52:20.688Z,42.50
2023-02-21T17:54:33.689Z,44.10
2023-02-21T17:56:47.232Z,52.40
2023-02-21T17:59:00.668Z,36.40
2023-02-21T18:01:18.888Z,42.90
2023-02-21T18:03:31.221Z,37.90
2023-02-21T18:05:43.643Z,40.80
2023-02-21T18:07:56.226Z,34.80
2023-02-21T18:10:09.453Z,28.70
2023-02-21T18:12:21.345Z,43.10
2023-02-21T18:14:33.561Z,32.60
2023-02-21T18:16:46.049Z,33.30
2023-02-21T18:18:58.462Z,26.50
2023-02-21T18:21:10.653Z,29.30
2023-02-21T18:23:24.927Z,26.20
2023-02-21T18:25:37.007Z,33.20
2023-02-21T18:27:49.324Z,31.50
2023-02-21T18:30:01.311Z,36.40
2023-02-21T18:32:13.806Z,30.70
2023-02-21T18:34:29.995Z,33.70
2023-02-21T18:36:54.542Z,37.10
2023-02-21T18:39:09.968Z,32.30
2023-02-21T18:41:23.616Z,30.50
2023-02-21T18:43:35.795Z,25.10
2023-02-21T18:45:49.620Z,31.90
2023-02-21T18:48:01.984Z,30.00
2023-02-21T18:50:13.829Z,36.10
2023-02-21T18:52:26.230Z,39.30
2023-02-21T18:54:46.774Z,30.20
2023-02-21T18:56:59.847Z,55.30
2023-02-21T18:59:12.033Z,149.00
2023-02-21T19:01:26.344Z,105.80
2023-02-21T19:03:39.128Z,98.80
2023-02-21T19:05:53.473Z,123.10
2023-02-21T19:08:05.556Z,118.70
2023-02-21T19:10:21.341Z,93.60
2023-02-21T19:12:33.948Z,56.20
2023-02-21T19:14:46.262Z,60.50
2023-02-21T19:16:59.164Z,41.00
2023-02-21T19:19:10.964Z,39.50
2023-02-21T19:21:24.283Z,38.70
2023-02-21T19:23:37.606Z,34.40
2023-02-21T19:25:50.150Z,28.70
2023-02-21T19:28:02.545Z,31.10
2023-02-21T19:30:19.545Z,28.10
2023-02-21T19:32:31.982Z,32.30
2023-02-21T19:34:47.677Z,29.90
2023-02-21T19:37:01.043Z,31.10
2023-02-21T19:39:12.938Z,40.70
2023-02-21T19:41:26.164Z,32.70
2023-02-21T19:43:38.386Z,30.40
2023-02-21T19:45:52.320Z,31.70
2023-02-21T19:48:04.495Z,33.80
2023-02-21T19:50:16.293Z,26.20
2023-02-21T19:52:29.111Z,31.50
2023-02-21T19:54:40.890Z,31.30
2023-02-21T19:56:52.986Z,28.50
2023-02-21T19:59:05.188Z,25.80
2023-02-21T20:01:17.730Z,27.90
2023-02-21T20:03:30.403Z,32.60
2023-02-21T20:05:42.403Z,28.60
2023-02-21T20:07:54.598Z,36.70
2023-02-21T20:10:10.930Z,30.20
2023-02-21T20:12:23.191Z,40.60
2023-02-21T20:14:36.624Z,36.20
2023-02-21T20:16:49.243Z,49.10
2023-02-21T20:19:01.438Z,50.80
2023-02-21T20:21:22.188Z,37.40
2023-02-21T20:23:34.230Z,37.80
2023-02-21T20:25:46.529Z,34.50
2023-02-21T20:28:01.291Z,53.00
2023-02-21T20:30:14.870Z,40.00
2023-02-21T20:32:27.268Z,36.90
2023-02-21T20:34:39.840Z,29.90
2023-02-21T20:36:51.527Z,33.60
2023-02-21T20:39:04.747Z,30.80
2023-02-21T20:41:16.450Z,44.70
2023-02-21T20:43:28.356Z,34.90
2023-02-21T20:45:40.289Z,60.00
2023-02-21T20:47:52.434Z,80.90
2023-02-21T20:50:07.558Z,73.30
2023-02-21T20:52:19.177Z,137.80
2023-02-21T20:54:31.066Z,156.90
2023-02-21T20:56:43.021Z,165.10
2023-02-21T20:58:54.907Z,204.30
2023-02-21T21:01:06.781Z,215.80
2023-02-21T21:03:18.642Z,103.60
2023-02-21T21:05:32.332Z,54.80
2023-02-21T21:07:45.694Z,57.50
2023-02-21T21:09:57.587Z,65.50
2023-02-21T21:12:12.658Z,86.60
2023-02-21T21:14:24.648Z,90.30
2023-02-21T21:16:37.256Z,89.10
2023-02-21T21:18:49.252Z,62.90
2023-02-21T21:21:03.398Z,43.10
2023-02-21T21:23:15.092Z,46.10
2023-02-21T21:25:26.771Z,36.90
2023-02-21T21:27:41.429Z,36.00
2023-02-21T21:29:54.038Z,39.50
2023-02-21T21:32:08.754Z,40.30
2023-02-21T21:34:25.510Z,44.00
2023-02-21T21:36:37.535Z,63.60
2023-02-21T21:38:49.391Z,40.00
2023-02-21T21:41:07.480Z,36.70
2023-02-21T21:43:19.522Z,34.50
2023-02-21T21:45:33.000Z,36.00
2023-02-21T21:47:46.683Z,33.20
2023-02-21T21:49:59.705Z,36.40
2023-02-21T21:52:11.715Z,36.90
2023-02-21T21:54:28.049Z,36.70
2023-02-21T21:56:40.500Z,35.00
2023-02-21T21:58:52.292Z,31.20
2023-02-21T22:01:07.932Z,39.70
2023-02-21T22:03:19.965Z,30.90
2023-02-21T22:05:32.584Z,27.00
2023-02-21T22:07:49.399Z,38.80
2023-02-21T22:10:02.040Z,28.00
2023-02-21T22:12:19.317Z,28.20
2023-02-21T22:14:32.407Z,33.80
2023-02-21T22:16:48.047Z,33.80
2023-02-21T22:19:00.007Z,30.60
2023-02-21T22:21:14.280Z,35.50
2023-02-21T22:23:26.352Z,25.60
2023-02-21T22:25:38.554Z,29.30
2023-02-21T22:27:50.116Z,38.20
2023-02-21T22:30:03.664Z,39.90
2023-02-21T22:32:16.345Z,37.50
2023-02-21T22:34:28.409Z,33.50
2023-02-21T22:36:46.765Z,33.00
2023-02-21T22:41:22.788Z,35.60
2023-02-21T22:43:34.337Z,39.80
2023-02-21T22:45:50.220Z,35.90
2023-02-21T22:48:04.505Z,32.00
2023-02-21T22:50:20.249Z,41.30
2023-02-21T22:52:35.312Z,34.10
2023-02-21T22:54:47.294Z,31.50
2023-02-21T22:57:03.772Z,36.80
2023-02-21T22:59:15.432Z,29.80
2023-02-21T23:01:27.938Z,33.60
2023-02-21T23:03:40.747Z,32.60
2023-02-21T23:05:52.746Z,35.80
2023-02-21T23:08:04.533Z,34.30
2023-02-21T23:10:23.675Z,35.80
2023-02-21T23:12:35.389Z,33.00
2023-02-21T23:14:48.300Z,41.10
2023-02-21T23:17:00.807Z,38.30
2023-02-21T23:19:12.596Z,40.50
2023-02-21T23:21:24.385Z,39.10
2023-02-21T23:23:36.893Z,33.70
2023-02-21T23:25:48.584Z,34.20
2023-02-21T23:28:04.522Z,34.30
2023-02-21T23:30:18.735Z,37.10
2023-02-21T23:32:30.826Z,41.10
2023-02-21T23:34:42.601Z,39.00
2023-02-21T23:36:55.317Z,37.40
2023-02-21T23:39:12.131Z,31.10
2023-02-21T23:41:24.326Z,33.80
2023-02-21T23:43:37.280Z,44.30
2023-02-21T23:45:49.399Z,39.10
2023-02-21T23:48:01.443Z,34.60
2023-02-21T23:50:17.443Z,35.10
2023-02-21T23:52:29.550Z,43.20
2023-02-21T23:54:41.527Z,41.90
2023-02-21T23:56:53.105Z,48.30
2023-02-21T23:59:06.183Z,41.20
